createdAt,value
2022-10-22T00:00:22.521Z,13.20
2022-10-22T00:03:16.086Z,13.10
2022-10-22T00:06:38.677Z,13.00
2022-10-22T00:09:12.774Z,12.90
2022-10-22T00:11:49.326Z,12.90
2022-10-22T00:14:24.226Z,13.60
2022-10-22T00:17:21.318Z,12.90
2022-10-22T00:19:57.295Z,13.40
2022-10-22T00:22:37.843Z,13.00
2022-10-22T00:25:13.546Z,12.40
2022-10-22T00:27:46.389Z,12.90
2022-10-22T00:30:49.476Z,12.30
2022-10-22T00:34:18.462Z,11.90
2022-10-22T00:37:00.712Z,11.60
2022-10-22T00:40:01.322Z,11.40
2022-10-22T00:42:58.436Z,11.80
2022-10-22T00:45:34.473Z,12.30
2022-10-22T00:49:25.334Z,12.30
2022-10-22T00:52:46.240Z,12.00
2022-10-22T00:56:12.240Z,13.30
2022-10-22T01:01:48.036Z,12.70
2022-10-22T01:04:23.481Z,13.50
2022-10-22T01:07:05.390Z,12.70
2022-10-22T01:09:43.377Z,13.30
2022-10-22T01:16:30.765Z,13.30
2022-10-22T01:19:29.609Z,12.90
2022-10-22T01:22:29.536Z,13.10
2022-10-22T01:29:17.927Z,12.70
2022-10-22T01:32:00.538Z,12.30
2022-10-22T01:37:49.014Z,12.70
2022-10-22T01:40:28.638Z,12.10
2022-10-22T01:43:30.110Z,12.40
2022-10-22T01:46:11.493Z,12.50
2022-10-22T01:55:26.816Z,14.10
2022-10-22T01:58:17.502Z,14.10
2022-10-22T02:01:27.482Z,13.90
2022-10-22T02:04:36.813Z,13.40
2022-10-22T02:07:43.178Z,13.90
2022-10-22T02:10:25.843Z,13.70
2022-10-22T02:13:45.849Z,14.00
2022-10-22T02:23:36.841Z,13.60
2022-10-22T02:27:00.936Z,14.20
2022-10-22T02:30:13.063Z,13.70
2022-10-22T02:36:50.434Z,14.20
2022-10-22T02:39:34.507Z,14.00
2022-10-22T02:42:09.487Z,25.90
2022-10-22T02:45:17.814Z,47.80
2022-10-22T02:47:51.553Z,50.40
2022-10-22T02:50:30.180Z,26.70
2022-10-22T02:53:05.550Z,27.30
2022-10-22T02:56:06.672Z,20.60
2022-10-22T02:59:09.858Z,42.00
2022-10-22T03:02:56.791Z,23.90
2022-10-22T03:05:30.581Z,17.00
2022-10-22T03:08:51.398Z,15.20
2022-10-22T03:11:47.546Z,19.40
2022-10-22T03:17:50.565Z,18.60
2022-10-22T03:20:51.384Z,38.30
2022-10-22T03:23:28.228Z,29.30
2022-10-22T03:26:03.704Z,25.20
2022-10-22T03:28:39.632Z,38.60
2022-10-22T03:31:39.478Z,40.60
2022-10-22T03:35:04.620Z,32.10
2022-10-22T03:44:24.608Z,21.30
2022-10-22T03:47:27.703Z,18.70
2022-10-22T03:50:23.325Z,17.00
2022-10-22T03:53:48.235Z,17.80
2022-10-22T03:56:26.611Z,17.10
2022-10-22T03:59:06.366Z,17.40
2022-10-22T04:02:28.330Z,17.20
2022-10-22T04:05:29.166Z,18.60
2022-10-22T04:08:49.769Z,17.30
2022-10-22T04:12:10.648Z,18.60
2022-10-22T04:14:46.588Z,18.80
2022-10-22T04:17:22.594Z,18.00
2022-10-22T04:19:55.829Z,17.40
2022-10-22T04:22:32.598Z,17.80
2022-10-22T04:29:03.426Z,18.50
2022-10-22T04:31:40.542Z,18.90
2022-10-22T04:35:00.136Z,19.30
2022-10-22T04:37:37.016Z,20.30
2022-10-22T04:40:25.433Z,22.70
2022-10-22T04:43:50.299Z,20.80
2022-10-22T04:46:48.483Z,18.60
2022-10-22T04:49:45.889Z,17.40
2022-10-22T04:52:19.787Z,18.40
2022-10-22T04:55:18.831Z,18.10
2022-10-22T04:57:58.764Z,18.20
2022-10-22T05:00:34.276Z,17.50
2022-10-22T05:06:55.730Z,16.70
2022-10-22T05:09:56.773Z,16.50
2022-10-22T05:16:14.712Z,17.50
2022-10-22T05:18:51.739Z,16.60
2022-10-22T05:21:48.576Z,17.70
2022-10-22T05:24:26.456Z,18.30
2022-10-22T05:33:57.338Z,18.40
2022-10-22T05:36:33.102Z,18.40
2022-10-22T05:42:29.956Z,17.40
2022-10-22T05:45:33.126Z,17.80
2022-10-22T05:48:59.406Z,17.60
2022-10-22T05:51:37.013Z,17.50
2022-10-22T05:57:24.051Z,19.80
2022-10-22T05:59:59.044Z,21.40
2022-10-22T06:02:59.291Z,21.20
2022-10-22T06:05:33.593Z,21.30
2022-10-22T06:08:14.440Z,20.60
2022-10-22T06:10:57.382Z,26.50
2022-10-22T06:13:40.783Z,25.40
2022-10-22T06:19:58.510Z,19.00
2022-10-22T06:22:33.175Z,20.90
2022-10-22T06:28:38.775Z,21.10
2022-10-22T06:34:43.824Z,18.70
2022-10-22T06:37:18.662Z,17.10
2022-10-22T06:40:20.735Z,16.00
2022-10-22T06:46:29.183Z,15.20
2022-10-22T07:02:18.534Z,13.40
2022-10-22T07:05:19.801Z,13.50
2022-10-22T07:08:21.358Z,12.40
2022-10-22T07:11:26.072Z,12.10
2022-10-22T07:14:26.608Z,12.80
2022-10-22T07:17:24.887Z,11.40
2022-10-22T07:20:08.032Z,11.90
2022-10-22T07:22:43.314Z,10.90
2022-10-22T07:25:23.482Z,11.10
2022-10-22T07:32:33.129Z,10.70
2022-10-22T07:35:14.278Z,10.80
2022-10-22T07:38:40.727Z,10.60
2022-10-22T07:41:45.743Z,10.90
2022-10-22T07:44:47.315Z,11.10
2022-10-22T07:47:24.989Z,11.00
2022-10-22T07:50:05.244Z,11.50
2022-10-22T07:53:03.662Z,11.10
2022-10-22T07:55:41.738Z,11.70
2022-10-22T07:58:38.492Z,13.40
2022-10-22T08:01:45.653Z,12.50
2022-10-22T08:04:19.654Z,13.00
2022-10-22T08:06:52.778Z,12.20
2022-10-22T08:09:30.907Z,11.90
2022-10-22T08:12:08.989Z,12.00
2022-10-22T08:15:12.752Z,12.20
2022-10-22T08:18:10.802Z,13.70
2022-10-22T08:25:22.424Z,12.00
2022-10-22T08:28:21.346Z,11.90
2022-10-22T08:31:00.472Z,11.50
2022-10-22T08:34:21.647Z,11.40
2022-10-22T08:37:01.184Z,11.60
2022-10-22T08:39:42.056Z,12.90
2022-10-22T08:42:44.740Z,13.90
2022-10-22T08:45:43.614Z,14.00
2022-10-22T08:48:35.084Z,14.20
2022-10-22T08:54:31.581Z,14.40
2022-10-22T08:57:25.740Z,12.90
2022-10-22T09:00:15.674Z,13.50
2022-10-22T09:03:37.277Z,12.80
2022-10-22T09:06:39.890Z,13.20
2022-10-22T09:09:26.099Z,14.10
2022-10-22T09:12:03.108Z,14.00
2022-10-22T09:14:38.850Z,15.30
2022-10-22T09:17:18.197Z,15.00
2022-10-22T09:23:42.050Z,15.20
2022-10-22T09:26:40.055Z,15.60
2022-10-22T09:29:22.601Z,15.60
2022-10-22T09:31:57.616Z,16.90
2022-10-22T09:34:32.648Z,16.00
2022-10-22T09:43:17.726Z,19.00
2022-10-22T09:45:59.242Z,21.40
2022-10-22T09:52:03.638Z,14.50
2022-10-22T09:55:26.815Z,17.40
2022-10-22T09:58:05.020Z,16.20
2022-10-22T10:04:55.564Z,18.30
2022-10-22T10:07:36.975Z,15.40
2022-10-22T10:10:23.398Z,16.10
2022-10-22T10:14:04.480Z,15.80
2022-10-22T10:16:53.759Z,13.50
2022-10-22T10:19:46.837Z,14.50
2022-10-22T10:22:45.438Z,15.90
2022-10-22T10:26:07.008Z,15.10
2022-10-22T10:39:57.499Z,16.50
2022-10-22T10:42:59.052Z,28.10
2022-10-22T10:46:03.539Z,22.10
2022-10-22T10:48:54.189Z,21.90
2022-10-22T10:52:21.302Z,19.00
2022-10-22T10:55:06.291Z,16.20
2022-10-22T10:57:52.835Z,16.10
2022-10-22T11:00:31.259Z,19.80
2022-10-22T11:09:52.732Z,20.40
2022-10-22T11:12:32.889Z,19.10
2022-10-22T11:15:21.639Z,19.20
2022-10-22T11:17:57.413Z,19.30
2022-10-22T11:20:40.891Z,20.00
2022-10-22T11:23:45.502Z,20.50
2022-10-22T11:30:08.518Z,21.60
2022-10-22T11:36:14.689Z,22.00
2022-10-22T11:45:40.410Z,40.50
2022-10-22T11:48:43.819Z,24.30
2022-10-22T11:52:04.366Z,21.90
2022-10-22T11:58:53.991Z,22.40
2022-10-22T12:01:51.990Z,24.90
2022-10-22T12:08:01.557Z,22.40
2022-10-22T12:11:17.299Z,24.10
2022-10-22T12:14:30.634Z,24.30
2022-10-22T12:17:47.218Z,21.60
2022-10-22T12:20:47.502Z,25.70
2022-10-22T12:23:50.766Z,28.10
2022-10-22T12:26:50.216Z,30.00
2022-10-22T12:32:57.542Z,24.00
2022-10-22T12:35:40.340Z,26.80
2022-10-22T12:38:42.500Z,26.10
2022-10-22T12:44:40.032Z,23.40
2022-10-22T12:47:20.118Z,23.80
2022-10-22T12:54:23.947Z,22.60
2022-10-22T12:56:58.641Z,24.00
2022-10-22T13:02:37.998Z,21.70
2022-10-22T13:05:27.542Z,19.50
2022-10-22T13:08:11.926Z,22.40
2022-10-22T13:11:00.626Z,19.80
2022-10-22T13:13:48.494Z,20.20
2022-10-22T13:17:15.846Z,19.70
2022-10-22T13:20:06.246Z,20.70
2022-10-22T13:25:46.515Z,18.80
2022-10-22T13:28:30.187Z,20.60
2022-10-22T13:31:17.865Z,20.20
2022-10-22T13:34:00.052Z,20.60
2022-10-22T13:36:59.396Z,20.70
2022-10-22T13:39:33.831Z,21.60
2022-10-22T13:42:15.415Z,23.40
2022-10-22T13:44:51.646Z,25.40
2022-10-22T13:54:30.928Z,25.30
2022-10-22T13:57:33.358Z,25.30
2022-10-22T14:03:43.569Z,25.00
2022-10-22T14:06:43.114Z,25.00
2022-10-22T14:10:09.375Z,24.60
2022-10-22T14:12:46.479Z,26.70
2022-10-22T14:15:53.644Z,29.10
2022-10-22T14:18:35.444Z,31.90
2022-10-22T14:21:55.929Z,29.60
2022-10-22T14:24:54.901Z,32.20
2022-10-22T14:30:32.512Z,30.00
2022-10-22T14:33:20.107Z,27.40
2022-10-22T14:36:00.604Z,36.20
2022-10-22T14:38:42.305Z,29.10
2022-10-22T14:41:45.002Z,28.20
2022-10-22T14:44:46.066Z,28.10
2022-10-22T14:54:23.374Z,29.60
2022-10-22T14:57:05.276Z,35.40
2022-10-22T15:00:06.880Z,29.70
2022-10-22T15:02:43.325Z,33.80
2022-10-22T15:05:20.348Z,33.90
2022-10-22T15:08:18.590Z,32.00
2022-10-22T15:11:34.939Z,30.10
2022-10-22T15:14:33.834Z,30.70
2022-10-22T15:17:33.950Z,51.30
2022-10-22T15:20:16.996Z,40.70
2022-10-22T15:26:01.204Z,33.90
2022-10-22T15:32:01.652Z,44.30
2022-10-22T15:35:04.638Z,33.80
2022-10-22T15:37:43.368Z,36.40
2022-10-22T15:40:29.472Z,33.20
2022-10-22T15:47:26.729Z,33.50
2022-10-22T15:50:27.148Z,33.40
2022-10-22T15:53:32.099Z,47.60
2022-10-22T16:00:04.401Z,38.40
2022-10-22T16:03:17.397Z,46.20
2022-10-22T16:06:06.031Z,66.80
2022-10-22T16:09:58.284Z,39.40
2022-10-22T16:13:01.264Z,42.90
2022-10-22T16:15:45.642Z,40.60
2022-10-22T16:18:31.574Z,54.40
2022-10-22T16:22:00.678Z,55.10
2022-10-22T16:25:05.436Z,52.00
2022-10-22T16:31:17.902Z,74.50
2022-10-22T16:33:54.850Z,54.80
2022-10-22T16:36:37.640Z,52.20
2022-10-22T16:39:38.381Z,47.70
2022-10-22T16:42:22.889Z,49.20
2022-10-22T16:45:12.056Z,54.50
2022-10-22T16:48:18.457Z,61.90
2022-10-22T16:51:23.826Z,54.00
2022-10-22T16:54:29.399Z,49.70
2022-10-22T16:57:15.676Z,47.00
2022-10-22T16:59:57.068Z,45.20
2022-10-22T17:03:01.447Z,65.40
2022-10-22T17:06:07.593Z,40.90
2022-10-22T17:08:50.877Z,41.00
2022-10-22T17:12:17.069Z,44.10
2022-10-22T17:18:27.983Z,51.60
2022-10-22T17:21:10.111Z,60.80
2022-10-22T17:26:52.038Z,47.60
2022-10-22T17:29:53.653Z,43.40
2022-10-22T17:32:56.060Z,41.80
2022-10-22T17:35:35.079Z,48.10
2022-10-22T17:41:57.547Z,48.20
2022-10-22T17:44:58.486Z,45.10
2022-10-22T17:47:30.574Z,50.00
2022-10-22T17:57:04.062Z,46.90
2022-10-22T18:00:48.014Z,44.90
2022-10-22T18:04:14.563Z,53.80
2022-10-22T18:06:57.609Z,42.10
2022-10-22T18:09:33.359Z,56.90
2022-10-22T18:12:18.831Z,43.00
2022-10-22T18:18:22.456Z,49.30
2022-10-22T18:24:44.824Z,43.10
2022-10-22T18:27:26.145Z,46.00
2022-10-22T18:30:02.489Z,45.80
2022-10-22T18:36:23.412Z,47.60
2022-10-22T18:42:39.976Z,41.60
2022-10-22T18:45:13.279Z,42.10
2022-10-22T18:47:47.851Z,45.20
2022-10-22T18:50:49.384Z,44.00
2022-10-22T18:57:02.549Z,42.10
2022-10-22T18:59:44.552Z,47.10
2022-10-22T19:02:21.860Z,51.20
2022-10-22T19:05:04.249Z,43.50
2022-10-22T19:07:45.508Z,55.20
2022-10-22T19:10:28.503Z,52.00
2022-10-22T19:16:50.317Z,42.40
2022-10-22T19:19:30.514Z,44.90
2022-10-22T19:22:07.039Z,43.40
2022-10-22T19:25:09.734Z,44.10
2022-10-22T19:27:53.421Z,41.10
2022-10-22T19:30:29.845Z,42.50
2022-10-22T19:33:51.875Z,42.30
2022-10-22T19:36:29.742Z,44.10
2022-10-22T19:42:26.889Z,41.70
2022-10-22T19:45:26.145Z,43.50
2022-10-22T19:48:04.168Z,45.50
2022-10-22T19:50:36.855Z,44.00
2022-10-22T19:53:13.315Z,43.50
2022-10-22T19:55:50.684Z,41.30
2022-10-22T19:59:11.111Z,43.80
2022-10-22T20:02:09.666Z,45.50
2022-10-22T20:04:49.266Z,46.90
2022-10-22T20:07:26.986Z,46.40
2022-10-22T20:10:24.969Z,48.50
2022-10-22T20:12:59.419Z,49.30
2022-10-22T20:15:34.720Z,45.10
2022-10-22T20:18:11.912Z,46.50
2022-10-22T20:21:15.851Z,44.90
2022-10-22T20:23:52.766Z,42.30
2022-10-22T20:26:31.814Z,41.70
2022-10-22T20:29:10.561Z,52.30
2022-10-22T20:35:31.327Z,40.60
2022-10-22T20:41:44.921Z,41.80
2022-10-22T20:45:11.857Z,40.90
2022-10-22T20:48:02.001Z,40.20
2022-10-22T20:50:35.090Z,40.50
2022-10-22T20:53:11.399Z,38.90
2022-10-22T20:56:11.934Z,37.60
2022-10-22T20:59:15.506Z,37.80
2022-10-22T21:05:37.840Z,37.70
2022-10-22T21:08:18.269Z,36.80
2022-10-22T21:14:23.098Z,39.10
2022-10-22T21:17:01.729Z,40.60
2022-10-22T21:19:38.707Z,40.70
2022-10-22T21:22:40.186Z,40.60
2022-10-22T21:26:01.798Z,43.40
2022-10-22T21:28:38.657Z,38.80
2022-10-22T21:31:22.967Z,40.90
2022-10-22T21:33:59.122Z,38.60
2022-10-22T21:36:57.764Z,39.60
2022-10-22T21:39:33.294Z,37.90
2022-10-22T21:42:36.801Z,38.50
2022-10-22T21:45:40.340Z,37.30
2022-10-22T21:48:37.459Z,38.30
2022-10-22T21:58:01.261Z,37.40
2022-10-22T22:01:01.641Z,37.70
2022-10-22T22:03:34.503Z,36.30
2022-10-22T22:13:27.674Z,35.90
2022-10-22T22:16:32.116Z,36.00
2022-10-22T22:19:11.281Z,36.40
2022-10-22T22:25:18.554Z,34.30
2022-10-22T22:27:55.473Z,35.20
2022-10-22T22:30:28.100Z,33.80
2022-10-22T22:33:06.206Z,33.50
2022-10-22T22:35:42.004Z,33.40
2022-10-22T22:38:41.164Z,33.60
2022-10-22T22:42:03.420Z,32.20
2022-10-22T22:48:03.907Z,33.50
2022-10-22T22:51:03.940Z,33.00
2022-10-22T22:54:00.735Z,32.70
2022-10-22T22:59:58.292Z,31.60
2022-10-22T23:02:30.981Z,33.00
2022-10-22T23:05:32.835Z,31.60
2022-10-22T23:08:08.882Z,31.90
2022-10-22T23:11:05.706Z,32.00
2022-10-22T23:14:11.961Z,32.10
2022-10-22T23:17:11.963Z,31.30
2022-10-22T23:19:49.349Z,31.90
2022-10-22T23:22:49.479Z,31.00
2022-10-22T23:25:52.824Z,31.10
2022-10-22T23:35:30.522Z,30.70
2022-10-22T23:38:05.759Z,30.80
2022-10-22T23:41:04.446Z,30.80
2022-10-22T23:43:41.415Z,31.00
2022-10-22T23:46:18.948Z,30.50
2022-10-22T23:48:56.580Z,30.50
2022-10-22T23:51:32.621Z,30.70
2022-10-22T23:57:14.489Z,30.60
2022-10-22T23:59:57.934Z,30.90
